createdAt,value
2018-07-22T00:01:09.113Z,17.30
2018-07-22T00:03:38.271Z,17.30
2018-07-22T00:06:06.732Z,17.30
2018-07-22T00:11:03.188Z,17.00
2018-07-22T00:13:31.573Z,17.00
2018-07-22T00:16:00.749Z,17.00
2018-07-22T00:18:29.105Z,17.00
2018-07-22T00:20:57.631Z,17.00
2018-07-22T00:23:25.990Z,17.00
2018-07-22T00:25:54.512Z,17.00
2018-07-22T00:28:22.912Z,17.00
2018-07-22T00:30:51.269Z,17.00
2018-07-22T00:35:47.863Z,17.00
2018-07-22T00:38:16.287Z,17.00
2018-07-22T00:40:44.635Z,17.00
2018-07-22T00:43:13.174Z,17.00
2018-07-22T00:45:41.563Z,17.10
2018-07-22T00:48:09.895Z,17.10
2018-07-22T00:50:38.264Z,17.10
2018-07-22T00:53:06.647Z,17.00
2018-07-22T00:55:35.008Z,17.00
2018-07-22T00:58:03.421Z,17.00
2018-07-22T01:03:00.159Z,17.00
2018-07-22T01:05:28.913Z,17.00
2018-07-22T01:07:57.307Z,16.90
2018-07-22T01:10:25.811Z,16.90
2018-07-22T01:12:54.325Z,16.90
2018-07-22T01:15:22.693Z,16.80
2018-07-22T01:20:19.142Z,16.80
2018-07-22T01:25:15.535Z,16.70
2018-07-22T01:27:43.907Z,16.70
2018-07-22T01:30:12.290Z,16.70
2018-07-22T01:32:40.894Z,16.70
2018-07-22T01:35:09.374Z,16.70
2018-07-22T01:37:37.806Z,16.70
2018-07-22T01:40:07.150Z,16.70
2018-07-22T01:42:35.562Z,16.70
2018-07-22T01:45:03.960Z,16.60
2018-07-22T01:47:32.356Z,16.60
2018-07-22T01:50:00.852Z,16.60
2018-07-22T01:52:29.206Z,16.40
2018-07-22T01:54:57.542Z,16.30
2018-07-22T01:57:26.576Z,16.30
2018-07-22T01:59:54.930Z,16.30
2018-07-22T02:02:23.379Z,16.30
2018-07-22T02:04:51.770Z,16.30
2018-07-22T02:07:20.703Z,16.30
2018-07-22T02:09:49.086Z,16.20
2018-07-22T02:12:17.469Z,16.10
2018-07-22T02:14:45.867Z,16.20
2018-07-22T02:17:14.269Z,16.20
2018-07-22T02:19:42.627Z,16.20
2018-07-22T02:22:10.992Z,16.20
2018-07-22T02:24:39.357Z,16.20
2018-07-22T02:27:07.938Z,16.10
2018-07-22T02:32:04.390Z,16.10
2018-07-22T02:34:32.744Z,16.10
2018-07-22T02:37:01.116Z,16.10
2018-07-22T02:39:29.472Z,16.10
2018-07-22T02:41:57.808Z,16.20
2018-07-22T02:44:26.160Z,16.20
2018-07-22T02:46:54.565Z,16.30
2018-07-22T02:51:50.986Z,16.30
2018-07-22T02:54:19.362Z,16.40
2018-07-22T02:56:47.768Z,16.40
2018-07-22T02:59:16.127Z,16.40
2018-07-22T03:04:12.778Z,16.30
2018-07-22T03:06:41.166Z,16.30
2018-07-22T03:09:10.348Z,16.30
2018-07-22T03:11:38.820Z,16.20
2018-07-22T03:14:07.318Z,16.20
2018-07-22T03:16:35.670Z,16.20
2018-07-22T03:19:04.062Z,16.20
2018-07-22T03:21:32.560Z,16.20
2018-07-22T03:24:00.931Z,16.10
2018-07-22T03:26:29.310Z,16.10
2018-07-22T03:28:57.765Z,16.10
2018-07-22T03:31:26.760Z,16.10
2018-07-22T03:33:55.084Z,16.10
2018-07-22T03:36:23.451Z,16.00
2018-07-22T03:38:52.424Z,16.00
2018-07-22T03:41:20.766Z,16.00
2018-07-22T03:43:49.120Z,16.00
2018-07-22T03:48:45.560Z,16.00
2018-07-22T03:53:42.002Z,16.00
2018-07-22T03:56:10.356Z,16.00
2018-07-22T03:58:38.694Z,16.00
2018-07-22T04:01:07.140Z,15.90
2018-07-22T04:13:28.263Z,15.70
2018-07-22T04:15:56.650Z,15.60
2018-07-22T04:18:25.148Z,15.70
2018-07-22T04:20:53.497Z,15.70
2018-07-22T04:23:21.864Z,15.80
2018-07-22T04:25:50.200Z,15.70
2018-07-22T04:28:18.554Z,15.80
2018-07-22T04:30:46.918Z,15.80
2018-07-22T04:33:15.272Z,15.90
2018-07-22T04:35:43.632Z,16.00
2018-07-22T04:38:12.051Z,16.00
2018-07-22T04:40:40.409Z,16.10
2018-07-22T04:43:08.742Z,16.10
2018-07-22T04:45:37.173Z,16.10
2018-07-22T04:48:05.632Z,16.10
2018-07-22T04:50:40.749Z,16.10
2018-07-22T04:53:09.070Z,16.10
2018-07-22T04:55:37.713Z,16.20
2018-07-22T04:58:06.405Z,16.30
2018-07-22T05:00:34.817Z,16.30
2018-07-22T05:03:03.797Z,16.40
2018-07-22T05:05:32.873Z,16.40
2018-07-22T05:08:01.187Z,16.50
2018-07-22T05:10:29.629Z,16.50
2018-07-22T05:12:57.979Z,16.60
2018-07-22T05:15:26.467Z,16.60
2018-07-22T05:17:54.854Z,16.70
2018-07-22T05:20:23.206Z,16.80
2018-07-22T05:22:51.587Z,16.90
2018-07-22T05:25:20.019Z,16.90
2018-07-22T05:30:17.242Z,17.10
2018-07-22T05:32:45.612Z,17.10
2018-07-22T05:35:13.993Z,17.10
2018-07-22T05:37:42.343Z,17.20
2018-07-22T05:40:10.735Z,17.30
2018-07-22T05:42:39.165Z,17.40
2018-07-22T05:45:07.652Z,17.40
2018-07-22T05:50:05.339Z,17.60
2018-07-22T05:55:01.948Z,17.60
2018-07-22T05:57:30.433Z,17.60
2018-07-22T05:59:58.794Z,17.60
2018-07-22T06:02:27.227Z,17.70
2018-07-22T06:07:23.875Z,17.80
2018-07-22T06:09:52.257Z,17.90
2018-07-22T06:12:21.291Z,17.90
2018-07-22T06:14:49.649Z,18.00
2018-07-22T06:17:18.041Z,18.10
2018-07-22T06:19:47.127Z,18.10
2018-07-22T06:24:43.659Z,18.20
2018-07-22T06:27:12.074Z,18.30
2018-07-22T06:29:40.458Z,18.40
2018-07-22T06:32:08.907Z,18.50
2018-07-22T06:34:37.263Z,18.50
2018-07-22T06:37:05.657Z,18.60
2018-07-22T06:39:34.923Z,18.60
2018-07-22T06:42:03.269Z,18.60
2018-07-22T06:44:31.814Z,18.70
2018-07-22T06:47:00.198Z,18.70
2018-07-22T06:49:28.581Z,18.80
2018-07-22T06:54:25.045Z,18.90
2018-07-22T06:56:53.541Z,19.10
2018-07-22T06:59:28.701Z,19.10
2018-07-22T07:01:57.077Z,19.20
2018-07-22T07:04:25.513Z,19.30
2018-07-22T07:06:53.889Z,19.40
2018-07-22T07:09:22.243Z,19.30
2018-07-22T07:11:50.784Z,19.40
2018-07-22T07:14:19.263Z,19.40
2018-07-22T07:16:48.624Z,19.50
2018-07-22T07:19:17.023Z,19.60
2018-07-22T07:21:45.391Z,19.70
2018-07-22T07:24:13.819Z,19.80
2018-07-22T07:26:42.201Z,19.80
2018-07-22T07:29:10.509Z,19.90
2018-07-22T07:34:07.411Z,19.90
2018-07-22T07:36:35.835Z,20.00
2018-07-22T07:39:07.667Z,20.10
2018-07-22T07:41:36.140Z,20.20
2018-07-22T07:44:04.546Z,20.20
2018-07-22T07:46:33.159Z,20.30
2018-07-22T07:49:01.501Z,20.30
2018-07-22T07:51:29.873Z,20.30
2018-07-22T07:53:58.250Z,20.40
2018-07-22T07:56:26.627Z,20.50
2018-07-22T07:58:55.007Z,20.60
2018-07-22T08:01:23.437Z,20.60
2018-07-22T08:03:51.940Z,20.70
2018-07-22T08:08:48.570Z,20.80
2018-07-22T08:11:17.741Z,20.80
2018-07-22T08:13:46.217Z,20.90
2018-07-22T08:16:14.659Z,21.00
2018-07-22T08:18:43.170Z,21.20
2018-07-22T08:21:11.571Z,21.30
2018-07-22T08:23:39.931Z,21.50
2018-07-22T08:26:08.397Z,21.50
2018-07-22T08:29:46.348Z,21.50
2018-07-22T08:32:14.877Z,21.50
2018-07-22T08:34:43.228Z,21.70
2018-07-22T08:37:11.651Z,21.70
2018-07-22T08:39:40.039Z,21.70
2018-07-22T08:42:08.523Z,21.80
2018-07-22T08:44:36.925Z,21.70
2018-07-22T08:47:05.462Z,21.80
2018-07-22T08:49:33.843Z,21.90
2018-07-22T08:52:02.209Z,21.90
2018-07-22T08:54:30.734Z,21.80
2018-07-22T08:56:59.155Z,21.80
2018-07-22T09:01:55.643Z,21.80
2018-07-22T09:04:24.041Z,21.80
2018-07-22T09:06:52.460Z,21.90
2018-07-22T09:09:20.883Z,22.00
2018-07-22T09:11:49.375Z,22.20
2018-07-22T09:14:17.846Z,22.30
2018-07-22T09:16:46.425Z,22.40
2018-07-22T09:19:14.828Z,22.50
2018-07-22T09:21:43.356Z,22.60
2018-07-22T09:24:11.739Z,22.80
2018-07-22T09:26:40.098Z,22.90
2018-07-22T09:29:08.585Z,23.10
2018-07-22T09:31:36.985Z,23.40
2018-07-22T09:34:05.335Z,23.60
2018-07-22T09:36:33.763Z,23.90
2018-07-22T09:39:02.120Z,24.00
2018-07-22T09:41:30.482Z,24.10
2018-07-22T09:43:58.871Z,24.20
2018-07-22T09:46:27.222Z,23.90
2018-07-22T09:49:02.562Z,23.80
2018-07-22T09:51:31.001Z,23.80
2018-07-22T09:53:59.385Z,24.10
2018-07-22T09:56:27.739Z,24.20
2018-07-22T09:58:56.173Z,24.20
2018-07-22T10:01:24.649Z,24.30
2018-07-22T10:03:53.037Z,24.40
2018-07-22T10:06:21.406Z,24.60
2018-07-22T10:08:49.808Z,24.70
2018-07-22T10:11:18.237Z,25.00
2018-07-22T10:16:14.828Z,25.20
2018-07-22T10:18:43.186Z,25.40
2018-07-22T10:21:11.636Z,25.50
2018-07-22T10:23:40.042Z,25.90
2018-07-22T10:26:08.432Z,26.20
2018-07-22T10:28:36.877Z,26.50
2018-07-22T10:31:05.472Z,26.50
2018-07-22T10:33:33.908Z,26.50
2018-07-22T10:40:58.631Z,27.00
2018-07-22T10:43:27.003Z,27.00
2018-07-22T10:45:55.370Z,27.20
2018-07-22T10:48:23.780Z,27.30
2018-07-22T10:50:52.160Z,26.30
2018-07-22T10:53:20.536Z,25.50
2018-07-22T10:55:48.994Z,25.60
2018-07-22T10:58:17.359Z,25.80
2018-07-22T11:00:45.730Z,25.60
2018-07-22T11:03:14.171Z,25.80
2018-07-22T11:05:42.510Z,26.20
2018-07-22T11:08:10.908Z,26.40
2018-07-22T11:13:07.884Z,26.80
2018-07-22T11:15:36.369Z,26.80
2018-07-22T11:20:32.955Z,26.80
2018-07-22T11:23:01.357Z,26.50
2018-07-22T11:25:29.754Z,26.50
2018-07-22T11:27:58.135Z,26.50
2018-07-22T11:30:26.521Z,26.30
2018-07-22T11:32:55.070Z,26.60
2018-07-22T11:35:23.439Z,26.80
2018-07-22T11:37:51.832Z,26.90
2018-07-22T11:40:20.209Z,27.50
2018-07-22T11:42:48.628Z,26.80
2018-07-22T11:45:16.975Z,27.30
2018-07-22T11:47:45.347Z,27.50
2018-07-22T11:50:13.813Z,27.40
2018-07-22T11:52:42.387Z,27.50
2018-07-22T11:55:10.875Z,27.50
2018-07-22T11:57:39.265Z,27.40
2018-07-22T12:00:07.713Z,27.50
2018-07-22T12:02:36.133Z,27.50
2018-07-22T12:05:04.523Z,27.50
2018-07-22T12:07:32.989Z,27.10
2018-07-22T12:10:01.293Z,26.80
2018-07-22T12:12:29.695Z,26.90
2018-07-22T12:14:58.093Z,27.00
2018-07-22T12:17:26.445Z,27.10
2018-07-22T12:22:22.908Z,27.20
2018-07-22T12:24:51.314Z,27.40
2018-07-22T12:27:19.677Z,27.50
2018-07-22T12:29:48.025Z,27.70
2018-07-22T12:34:45.292Z,27.70
2018-07-22T12:37:13.655Z,27.90
2018-07-22T12:39:42.041Z,28.20
2018-07-22T12:42:10.472Z,28.40
2018-07-22T12:44:38.816Z,28.70
2018-07-22T12:47:07.213Z,28.80
2018-07-22T12:49:35.668Z,28.70
2018-07-22T12:54:32.211Z,27.80
2018-07-22T12:57:00.601Z,28.30
2018-07-22T12:59:28.960Z,28.80
2018-07-22T13:01:57.290Z,29.20
2018-07-22T13:04:25.720Z,29.60
2018-07-22T13:06:54.222Z,29.80
2018-07-22T13:09:22.595Z,29.30
2018-07-22T13:11:50.991Z,29.10
2018-07-22T13:14:19.499Z,29.30
2018-07-22T13:16:48.431Z,29.60
2018-07-22T13:19:16.783Z,28.90
2018-07-22T13:21:45.191Z,28.50
2018-07-22T13:24:13.560Z,28.70
2018-07-22T13:26:41.947Z,28.20
2018-07-22T13:29:10.319Z,28.60
2018-07-22T13:31:45.443Z,28.50
2018-07-22T13:34:13.887Z,28.80
2018-07-22T13:36:42.825Z,29.10
2018-07-22T13:39:12.003Z,29.30
2018-07-22T13:41:41.006Z,28.40
2018-07-22T13:44:09.475Z,28.00
2018-07-22T13:46:38.260Z,27.90
2018-07-22T13:49:07.151Z,27.80
2018-07-22T13:51:35.951Z,27.50
2018-07-22T13:54:04.703Z,27.50
2018-07-22T13:56:33.078Z,27.30
2018-07-22T13:59:01.437Z,27.20
2018-07-22T14:01:29.892Z,27.30
2018-07-22T14:06:26.563Z,26.90
2018-07-22T14:08:54.947Z,27.20
2018-07-22T14:11:23.405Z,27.10
2018-07-22T14:13:51.818Z,27.40
2018-07-22T14:16:20.239Z,27.60
2018-07-22T14:18:48.720Z,27.50
2018-07-22T14:21:17.171Z,27.60
2018-07-22T14:23:45.546Z,27.60
2018-07-22T14:26:14.426Z,27.60
2018-07-22T14:33:39.578Z,28.50
2018-07-22T14:38:36.318Z,28.50
2018-07-22T14:41:04.929Z,28.90
2018-07-22T14:43:33.172Z,29.20
2018-07-22T14:46:01.522Z,29.60
2018-07-22T14:48:30.026Z,29.60
2018-07-22T14:50:58.495Z,29.20
2018-07-22T14:53:26.888Z,28.90
2018-07-22T14:55:55.433Z,28.70
2018-07-22T14:58:23.998Z,29.00
2018-07-22T15:00:52.447Z,28.90
2018-07-22T15:03:20.884Z,28.80
2018-07-22T15:05:50.291Z,28.90
2018-07-22T15:08:18.703Z,28.70
2018-07-22T15:10:47.077Z,28.80
2018-07-22T15:13:15.456Z,29.10
2018-07-22T15:15:43.804Z,29.70
2018-07-22T15:18:12.190Z,30.20
2018-07-22T15:20:40.701Z,30.60
2018-07-22T15:23:09.102Z,30.70
2018-07-22T15:25:37.460Z,31.00
2018-07-22T15:28:05.839Z,31.00
2018-07-22T15:30:34.210Z,31.30
2018-07-22T15:33:02.558Z,31.40
2018-07-22T15:35:30.909Z,31.20
2018-07-22T15:37:59.408Z,30.80
2018-07-22T15:40:27.772Z,31.00
2018-07-22T15:42:56.256Z,30.80
2018-07-22T15:45:24.662Z,30.20
2018-07-22T15:47:53.094Z,30.50
2018-07-22T15:50:25.340Z,30.90
2018-07-22T15:52:53.823Z,31.10
2018-07-22T15:55:22.581Z,31.30
2018-07-22T15:57:51.560Z,31.40
2018-07-22T16:00:20.493Z,31.40
2018-07-22T16:02:49.102Z,31.20
2018-07-22T16:05:17.682Z,31.30
2018-07-22T16:07:46.537Z,31.30
2018-07-22T16:10:15.077Z,31.50
2018-07-22T16:12:43.675Z,31.60
2018-07-22T16:15:12.149Z,31.60
2018-07-22T16:17:40.541Z,31.70
2018-07-22T16:20:09.042Z,31.60
2018-07-22T16:22:38.532Z,31.70
2018-07-22T16:25:06.931Z,31.90
2018-07-22T16:27:35.448Z,32.00
2018-07-22T16:30:03.972Z,32.10
2018-07-22T16:32:32.991Z,32.10
2018-07-22T16:35:01.424Z,32.10
2018-07-22T16:37:30.419Z,32.20
2018-07-22T16:39:58.821Z,32.10
2018-07-22T16:42:27.190Z,32.00
2018-07-22T16:44:55.629Z,31.90
2018-07-22T16:49:56.408Z,31.80
2018-07-22T16:52:24.836Z,31.60
2018-07-22T16:54:53.263Z,31.40
2018-07-22T16:57:21.684Z,31.20
2018-07-22T16:59:50.076Z,30.90
2018-07-22T17:02:18.604Z,30.90
2018-07-22T17:04:46.966Z,30.70
2018-07-22T17:07:15.331Z,30.50
2018-07-22T17:12:12.427Z,30.10
2018-07-22T17:17:33.308Z,29.90
2018-07-22T17:20:01.734Z,29.60
2018-07-22T17:22:30.220Z,29.50
2018-07-22T17:24:58.569Z,29.30
2018-07-22T17:27:27.618Z,29.20
2018-07-22T17:29:56.046Z,29.10
2018-07-22T17:32:24.664Z,29.00
2018-07-22T17:34:53.128Z,29.00
2018-07-22T17:37:21.491Z,29.10
2018-07-22T17:39:49.940Z,29.10
2018-07-22T17:42:18.335Z,29.00
2018-07-22T17:44:47.461Z,29.00
2018-07-22T17:47:15.853Z,28.80
2018-07-22T17:49:44.232Z,28.70
2018-07-22T17:52:12.662Z,28.50
2018-07-22T17:57:09.378Z,28.10
2018-07-22T18:04:34.120Z,27.50
2018-07-22T18:07:02.504Z,27.40
2018-07-22T18:09:30.962Z,27.20
2018-07-22T18:11:59.364Z,27.10
2018-07-22T18:14:27.808Z,27.00
2018-07-22T18:16:56.223Z,26.90
2018-07-22T18:19:24.611Z,26.80
2018-07-22T18:21:53.209Z,26.70
2018-07-22T18:26:49.615Z,26.50
2018-07-22T18:29:21.657Z,26.30
2018-07-22T18:31:50.091Z,26.20
2018-07-22T18:36:46.602Z,25.90
2018-07-22T18:39:15.050Z,25.90
2018-07-22T18:41:43.674Z,25.80
2018-07-22T18:44:12.336Z,25.70
2018-07-22T18:46:40.878Z,25.70
2018-07-22T18:49:09.351Z,25.70
2018-07-22T18:51:37.785Z,25.60
2018-07-22T18:54:06.573Z,25.60
2018-07-22T18:56:35.137Z,25.50
2018-07-22T18:59:03.622Z,25.40
2018-07-22T19:01:32.869Z,25.30
2018-07-22T19:04:01.575Z,25.20
2018-07-22T19:06:30.274Z,25.20
2018-07-22T19:08:59.112Z,25.10
2018-07-22T19:13:55.973Z,24.90
2018-07-22T19:16:24.361Z,24.80
2018-07-22T19:18:52.808Z,24.80
2018-07-22T19:21:21.209Z,24.70
2018-07-22T19:23:49.644Z,24.70
2018-07-22T19:26:18.082Z,24.60
2018-07-22T19:28:46.516Z,24.60
2018-07-22T19:31:15.002Z,24.40
2018-07-22T19:33:43.445Z,24.40
2018-07-22T19:36:11.930Z,24.30
2018-07-22T19:41:08.580Z,24.20
2018-07-22T19:43:37.009Z,24.20
2018-07-22T19:46:05.715Z,24.10
2018-07-22T19:48:34.148Z,24.00
2018-07-22T19:51:02.602Z,23.90
2018-07-22T19:53:31.068Z,23.90
2018-07-22T19:55:59.428Z,23.80
2018-07-22T19:58:27.832Z,23.70
2018-07-22T20:00:56.299Z,23.60
2018-07-22T20:03:24.722Z,23.60
2018-07-22T20:08:21.273Z,23.50
2018-07-22T20:10:49.730Z,23.40
2018-07-22T20:13:18.187Z,23.40
2018-07-22T20:15:46.607Z,23.30
2018-07-22T20:20:43.124Z,23.10
2018-07-22T20:23:11.558Z,23.00
2018-07-22T20:25:39.977Z,22.90
2018-07-22T20:28:09.113Z,22.70
2018-07-22T20:33:06.508Z,22.60
2018-07-22T20:38:03.023Z,22.40
2018-07-22T20:40:31.387Z,22.40
2018-07-22T20:42:59.779Z,22.30
2018-07-22T20:45:28.212Z,22.30
2018-07-22T20:47:56.615Z,22.20
2018-07-22T20:50:24.996Z,22.20
2018-07-22T20:52:53.408Z,22.20
2018-07-22T20:55:21.834Z,22.10
2018-07-22T20:57:50.256Z,22.00
2018-07-22T21:00:18.708Z,22.00
2018-07-22T21:02:47.136Z,21.90
2018-07-22T21:05:15.591Z,21.80
2018-07-22T21:07:43.982Z,21.80
2018-07-22T21:10:12.364Z,21.70
2018-07-22T21:12:53.515Z,21.60
2018-07-22T21:15:22.019Z,21.50
2018-07-22T21:17:51.500Z,21.40
2018-07-22T21:20:20.892Z,21.40
2018-07-22T21:22:49.311Z,21.40
2018-07-22T21:25:18.068Z,21.30
2018-07-22T21:27:46.550Z,21.20
2018-07-22T21:30:15.439Z,21.10
2018-07-22T21:32:43.850Z,21.00
2018-07-22T21:35:12.343Z,20.90
2018-07-22T21:37:40.775Z,20.90
2018-07-22T21:40:09.151Z,20.90
2018-07-22T21:42:37.541Z,20.80
2018-07-22T21:45:06.754Z,20.80
2018-07-22T21:47:35.449Z,20.70
2018-07-22T21:50:04.483Z,20.60
2018-07-22T21:52:32.995Z,20.60
2018-07-22T21:55:01.396Z,20.50
2018-07-22T21:57:29.742Z,20.50
2018-07-22T21:59:58.131Z,20.50
2018-07-22T22:02:32.446Z,20.40
2018-07-22T22:05:02.077Z,20.30
2018-07-22T22:07:30.812Z,20.30
2018-07-22T22:09:59.639Z,20.20
2018-07-22T22:14:56.048Z,20.10
2018-07-22T22:17:24.435Z,20.10
2018-07-22T22:19:53.379Z,20.10
2018-07-22T22:22:21.817Z,20.10
2018-07-22T22:24:50.289Z,20.10
2018-07-22T22:27:18.603Z,20.00
2018-07-22T22:29:47.645Z,20.00
2018-07-22T22:32:16.025Z,19.90
2018-07-22T22:37:12.485Z,19.80
2018-07-22T22:42:08.969Z,19.70
2018-07-22T22:44:37.331Z,19.60
2018-07-22T22:47:05.845Z,19.60
2018-07-22T22:49:34.981Z,19.50
2018-07-22T22:54:31.454Z,19.40
2018-07-22T22:56:59.856Z,19.30
2018-07-22T22:59:28.359Z,19.30
2018-07-22T23:01:56.759Z,19.20
2018-07-22T23:04:25.172Z,19.20
2018-07-22T23:07:00.379Z,19.10
2018-07-22T23:09:28.784Z,19.10
2018-07-22T23:14:31.825Z,19.10
2018-07-22T23:17:00.209Z,19.00
2018-07-22T23:19:28.675Z,19.00
2018-07-22T23:21:57.165Z,19.00
2018-07-22T23:24:25.608Z,18.90
2018-07-22T23:26:53.996Z,18.80
2018-07-22T23:29:22.374Z,18.80
2018-07-22T23:31:50.801Z,18.70
2018-07-22T23:34:19.213Z,18.70
2018-07-22T23:36:47.632Z,18.70
2018-07-22T23:39:16.001Z,18.70
2018-07-22T23:41:44.375Z,18.60
2018-07-22T23:44:12.760Z,18.60
2018-07-22T23:46:41.134Z,18.60
2018-07-22T23:49:09.566Z,18.60
2018-07-22T23:51:37.921Z,18.50
2018-07-22T23:54:06.357Z,18.10
2018-07-22T23:56:34.750Z,17.90
2018-07-22T23:59:03.198Z,17.90
